FLY9 NZNS-NZWF
Flight info
| Callsign | FLY9 |
|---|---|
| Flight time | 0h 56m |
| Altitude | 43000 |
| Route | NESTA Q787 MAMUS Y886 ELRUV |
| Aircraft | C25C/M-SDE2E3FGHRWXY/LB1 |
Departure
| Time | 2026-04-22 02:26 |
|---|---|
| Airport | Nelson Airport (NZNS) |
Arrival
| Time | 2026-04-22 03:22 |
|---|---|
| Airport | Wanaka Airport (NZWF) |
| Time | Latitude | Longitude | Altitude | Speed | Heading |
|---|---|---|---|---|---|
| 2026-04-22 02:14 | -41.29917 | 173.22468 | 57 ft | 0 kts | 174° |
| 2026-04-22 02:22 | -41.29918 | 173.22470 | 55 ft | 1 kts | 135° |
| 2026-04-22 02:23 | -41.29894 | 173.22477 | 57 ft | 6 kts | 335° |
| 2026-04-22 02:23 | -41.29870 | 173.22426 | 57 ft | 6 kts | 262° |
| 2026-04-22 02:23 | -41.29945 | 173.22321 | 54 ft | 27 kts | 220° |
| 2026-04-22 02:23 | -41.30116 | 173.22122 | 55 ft | 29 kts | 221° |
| 2026-04-22 02:24 | -41.30180 | 173.22048 | 54 ft | 0 kts | 223° |
| 2026-04-22 02:25 | -41.30137 | 173.21914 | 52 ft | 21 kts | 324° |
| 2026-04-22 02:25 | -41.30092 | 173.21945 | 51 ft | 9 kts | 41° |
| 2026-04-22 02:26 | -41.30088 | 173.21949 | 52 ft | 0 kts | 40° |
| 2026-04-22 02:26 | -41.29889 | 173.22178 | 53 ft | 97 kts | 40° |
| 2026-04-22 02:26 | -41.29128 | 173.23052 | 246 ft | 179 kts | 42° |
| 2026-04-22 02:26 | -41.28020 | 173.24091 | 1302 ft | 211 kts | 27° |
| 2026-04-22 02:27 | -41.26515 | 173.24586 | 2437 ft | 241 kts | 357° |
| 2026-04-22 02:27 | -41.24965 | 173.23654 | 3607 ft | 252 kts | 315° |
| 2026-04-22 02:27 | -41.24120 | 173.21659 | 4998 ft | 254 kts | 286° |
| 2026-04-22 02:27 | -41.23645 | 173.19202 | 5200 ft | 284 kts | 279° |
| 2026-04-22 02:28 | -41.23276 | 173.16665 | 5195 ft | 285 kts | 279° |
| 2026-04-22 02:28 | -41.22824 | 173.14130 | 5166 ft | 280 kts | 282° |
| 2026-04-22 02:28 | -41.22584 | 173.11669 | 5051 ft | 262 kts | 268° |
| 2026-04-22 02:28 | -41.22557 | 173.09307 | 5011 ft | 249 kts | 270° |
| 2026-04-22 02:29 | -41.22506 | 173.07060 | 5022 ft | 238 kts | 268° |
| 2026-04-22 02:29 | -41.22472 | 173.04889 | 5011 ft | 232 kts | 269° |
| 2026-04-22 02:29 | -41.22436 | 173.02780 | 5013 ft | 226 kts | 268° |
| 2026-04-22 02:29 | -41.22455 | 173.00727 | 5016 ft | 218 kts | 258° |
| 2026-04-22 02:30 | -41.23105 | 172.98985 | 5049 ft | 209 kts | 228° |
| 2026-04-22 02:30 | -41.24091 | 172.97596 | 5103 ft | 205 kts | 223° |
| 2026-04-22 02:30 | -41.25137 | 172.96342 | 5108 ft | 200 kts | 208° |
| 2026-04-22 02:30 | -41.26443 | 172.95772 | 5124 ft | 197 kts | 193° |
| 2026-04-22 02:31 | -41.27752 | 172.95255 | 5149 ft | 196 kts | 198° |
| 2026-04-22 02:31 | -41.29041 | 172.94698 | 5209 ft | 194 kts | 197° |
| 2026-04-22 02:31 | -41.30361 | 172.94079 | 5401 ft | 214 kts | 198° |
| 2026-04-22 02:31 | -41.31723 | 172.93453 | 6912 ft | 205 kts | 197° |
| 2026-04-22 02:32 | -41.33097 | 172.92814 | 8131 ft | 213 kts | 195° |
| 2026-04-22 02:32 | -41.34509 | 172.92160 | 9437 ft | 217 kts | 194° |
| 2026-04-22 02:32 | -41.35955 | 172.91498 | 10627 ft | 222 kts | 194° |
| 2026-04-22 02:32 | -41.37424 | 172.90815 | 11754 ft | 225 kts | 195° |
| 2026-04-22 02:33 | -41.38919 | 172.90127 | 12912 ft | 229 kts | 196° |
| 2026-04-22 02:33 | -41.40439 | 172.89425 | 14063 ft | 234 kts | 197° |
| 2026-04-22 02:33 | -41.41982 | 172.88707 | 15111 ft | 235 kts | 198° |
| 2026-04-22 02:33 | -41.43535 | 172.87990 | 16179 ft | 237 kts | 199° |
| 2026-04-22 02:34 | -41.45099 | 172.87267 | 17275 ft | 239 kts | 199° |
| 2026-04-22 02:34 | -41.46680 | 172.86534 | 18384 ft | 242 kts | 200° |
| 2026-04-22 02:34 | -41.48279 | 172.85792 | 19333 ft | 246 kts | 200° |
| 2026-04-22 02:34 | -41.49914 | 172.85033 | 20279 ft | 251 kts | 200° |
| 2026-04-22 02:35 | -41.51584 | 172.84261 | 21255 ft | 256 kts | 201° |
| 2026-04-22 02:35 | -41.53287 | 172.83468 | 22246 ft | 261 kts | 201° |
| 2026-04-22 02:35 | -41.55022 | 172.82663 | 23239 ft | 266 kts | 200° |
| 2026-04-22 02:35 | -41.56786 | 172.81842 | 24133 ft | 271 kts | 201° |
| 2026-04-22 02:36 | -41.58582 | 172.81008 | 24896 ft | 275 kts | 201° |
| 2026-04-22 02:36 | -41.60406 | 172.80160 | 25632 ft | 280 kts | 201° |
| 2026-04-22 02:36 | -41.62259 | 172.79295 | 26369 ft | 284 kts | 201° |
| 2026-04-22 02:36 | -41.64116 | 172.78432 | 27072 ft | 289 kts | 201° |
| 2026-04-22 02:37 | -41.66027 | 172.77540 | 27790 ft | 293 kts | 201° |
| 2026-04-22 02:37 | -41.67971 | 172.76634 | 28481 ft | 298 kts | 202° |
| 2026-04-22 02:37 | -41.69944 | 172.75711 | 29162 ft | 303 kts | 202° |
| 2026-04-22 02:37 | -41.71954 | 172.74774 | 29710 ft | 312 kts | 202° |
| 2026-04-22 02:38 | -41.74074 | 172.73778 | 29740 ft | 334 kts | 202° |
| 2026-04-22 02:38 | -41.76331 | 172.72721 | 29781 ft | 353 kts | 201° |
| 2026-04-22 02:38 | -41.78682 | 172.71626 | 30227 ft | 359 kts | 202° |
| 2026-04-22 02:38 | -41.81041 | 172.70527 | 30820 ft | 358 kts | 202° |
| 2026-04-22 02:39 | -41.83323 | 172.69234 | 31409 ft | 355 kts | 210° |
| 2026-04-22 02:39 | -41.85430 | 172.67538 | 31984 ft | 352 kts | 217° |
| 2026-04-22 02:39 | -41.87383 | 172.65574 | 32550 ft | 351 kts | 218° |
| 2026-04-22 02:39 | -41.89340 | 172.63624 | 33079 ft | 350 kts | 218° |
| 2026-04-22 02:40 | -41.91289 | 172.61677 | 33610 ft | 349 kts | 218° |
| 2026-04-22 02:40 | -41.93230 | 172.59724 | 34124 ft | 348 kts | 218° |
| 2026-04-22 02:40 | -41.95168 | 172.57774 | 34565 ft | 348 kts | 217° |
| 2026-04-22 02:40 | -41.97108 | 172.55825 | 34980 ft | 349 kts | 217° |
| 2026-04-22 02:41 | -41.99050 | 172.53874 | 35502 ft | 348 kts | 217° |
| 2026-04-22 02:41 | -42.00987 | 172.51922 | 36035 ft | 348 kts | 217° |
| 2026-04-22 02:41 | -42.02927 | 172.49967 | 36541 ft | 348 kts | 216° |
| 2026-04-22 02:41 | -42.04864 | 172.48014 | 37059 ft | 348 kts | 216° |
| 2026-04-22 02:42 | -42.06801 | 172.46058 | 37571 ft | 348 kts | 216° |
| 2026-04-22 02:42 | -42.08740 | 172.44101 | 38095 ft | 348 kts | 216° |
| 2026-04-22 02:42 | -42.10675 | 172.42143 | 38617 ft | 348 kts | 216° |
| 2026-04-22 02:42 | -42.12614 | 172.40183 | 39075 ft | 349 kts | 215° |
| 2026-04-22 02:43 | -42.13897 | 172.38885 | 39353 ft | 348 kts | 216° |
| 2026-04-22 02:43 | -42.15833 | 172.36923 | 39742 ft | 349 kts | 216° |
| 2026-04-22 02:43 | -42.17772 | 172.34956 | 40123 ft | 349 kts | 216° |
| 2026-04-22 02:43 | -42.20374 | 172.32317 | 40620 ft | 350 kts | 216° |
| 2026-04-22 02:44 | -42.21665 | 172.31007 | 40871 ft | 351 kts | 216° |
| 2026-04-22 02:44 | -42.23618 | 172.29023 | 41244 ft | 351 kts | 216° |
| 2026-04-22 02:44 | -42.25569 | 172.27035 | 41625 ft | 352 kts | 216° |
| 2026-04-22 02:44 | -42.27528 | 172.25042 | 41988 ft | 353 kts | 216° |
| 2026-04-22 02:45 | -42.29491 | 172.23045 | 42357 ft | 354 kts | 216° |
| 2026-04-22 02:45 | -42.31455 | 172.21041 | 42739 ft | 354 kts | 216° |
| 2026-04-22 02:45 | -42.33427 | 172.19030 | 43017 ft | 358 kts | 216° |
| 2026-04-22 02:46 | -42.37496 | 172.14876 | 43110 ft | 376 kts | 216° |
| 2026-04-22 02:46 | -42.41766 | 172.10505 | 43120 ft | 393 kts | 216° |
| 2026-04-22 02:47 | -42.46212 | 172.05949 | 43122 ft | 408 kts | 216° |
| 2026-04-22 02:47 | -42.50802 | 172.01234 | 43121 ft | 420 kts | 216° |
| 2026-04-22 02:48 | -42.55512 | 171.96388 | 43128 ft | 430 kts | 216° |
| 2026-04-22 02:48 | -42.60320 | 171.91431 | 43121 ft | 436 kts | 216° |
| 2026-04-22 02:49 | -42.65097 | 171.86495 | 43220 ft | 426 kts | 216° |
| 2026-04-22 02:49 | -42.69778 | 171.81652 | 43270 ft | 421 kts | 216° |
| 2026-04-22 02:50 | -42.74416 | 171.76841 | 43273 ft | 418 kts | 216° |
| 2026-04-22 02:50 | -42.79022 | 171.72056 | 43277 ft | 415 kts | 216° |
| 2026-04-22 02:51 | -42.83591 | 171.67299 | 43285 ft | 412 kts | 216° |
| 2026-04-22 02:51 | -42.88135 | 171.62561 | 43287 ft | 410 kts | 216° |
| 2026-04-22 02:52 | -42.92655 | 171.57837 | 43295 ft | 408 kts | 216° |
| 2026-04-22 02:52 | -42.97122 | 171.53160 | 43302 ft | 407 kts | 216° |
| 2026-04-22 02:53 | -43.01634 | 171.48427 | 43294 ft | 406 kts | 216° |
| 2026-04-22 02:53 | -43.06104 | 171.43728 | 43298 ft | 405 kts | 216° |
| 2026-04-22 02:54 | -43.10534 | 171.39062 | 43304 ft | 405 kts | 216° |
| 2026-04-22 02:54 | -43.14993 | 171.34357 | 43310 ft | 404 kts | 216° |
| 2026-04-22 02:55 | -43.19441 | 171.29654 | 43315 ft | 404 kts | 216° |
| 2026-04-22 02:55 | -43.23888 | 171.24942 | 43314 ft | 404 kts | 216° |
| 2026-04-22 02:56 | -43.28334 | 171.20225 | 43324 ft | 404 kts | 216° |
| 2026-04-22 02:56 | -43.32760 | 171.15519 | 42930 ft | 397 kts | 216° |
| 2026-04-22 02:56 | -43.34929 | 171.13208 | 42415 ft | 392 kts | 216° |
| 2026-04-22 02:57 | -43.37070 | 171.10926 | 41907 ft | 387 kts | 216° |
| 2026-04-22 02:57 | -43.39187 | 171.08669 | 41401 ft | 383 kts | 216° |
| 2026-04-22 02:57 | -43.41284 | 171.06432 | 40900 ft | 380 kts | 216° |
| 2026-04-22 02:57 | -43.43361 | 171.04211 | 40403 ft | 377 kts | 215° |
| 2026-04-22 02:58 | -43.45423 | 171.02005 | 39917 ft | 374 kts | 215° |
| 2026-04-22 02:58 | -43.47470 | 170.99814 | 39431 ft | 372 kts | 214° |
| 2026-04-22 02:58 | -43.49503 | 170.97637 | 38925 ft | 369 kts | 214° |
| 2026-04-22 02:58 | -43.51516 | 170.95475 | 38400 ft | 364 kts | 213° |
| 2026-04-22 02:59 | -43.53500 | 170.93344 | 37920 ft | 359 kts | 213° |
| 2026-04-22 02:59 | -43.55457 | 170.91242 | 37448 ft | 354 kts | 212° |
| 2026-04-22 02:59 | -43.57386 | 170.89168 | 36935 ft | 349 kts | 212° |
| 2026-04-22 02:59 | -43.59314 | 170.87096 | 36435 ft | 347 kts | 211° |
| 2026-04-22 03:00 | -43.61188 | 170.85071 | 36069 ft | 340 kts | 211° |
| 2026-04-22 03:00 | -43.63037 | 170.83080 | 35621 ft | 333 kts | 210° |
| 2026-04-22 03:00 | -43.64815 | 170.81159 | 35195 ft | 325 kts | 209° |
| 2026-04-22 03:00 | -43.66577 | 170.79259 | 34768 ft | 318 kts | 208° |
| 2026-04-22 03:01 | -43.68299 | 170.77397 | 34349 ft | 310 kts | 208° |
| 2026-04-22 03:01 | -43.69979 | 170.75580 | 33918 ft | 304 kts | 207° |
| 2026-04-22 03:01 | -43.71628 | 170.73800 | 33514 ft | 298 kts | 207° |
| 2026-04-22 03:01 | -43.73243 | 170.72050 | 33121 ft | 292 kts | 207° |
| 2026-04-22 03:02 | -43.74830 | 170.70332 | 32747 ft | 288 kts | 206° |
| 2026-04-22 03:02 | -43.76394 | 170.68637 | 32365 ft | 283 kts | 206° |
| 2026-04-22 03:02 | -43.77933 | 170.66966 | 31994 ft | 279 kts | 206° |
| 2026-04-22 03:02 | -43.79453 | 170.65319 | 31631 ft | 276 kts | 206° |
| 2026-04-22 03:03 | -43.80955 | 170.63685 | 31272 ft | 274 kts | 205° |
| 2026-04-22 03:03 | -43.82447 | 170.62065 | 30915 ft | 272 kts | 205° |
| 2026-04-22 03:03 | -43.83928 | 170.60454 | 30561 ft | 270 kts | 205° |
| 2026-04-22 03:03 | -43.85397 | 170.58856 | 30178 ft | 268 kts | 205° |
| 2026-04-22 03:04 | -43.86851 | 170.57270 | 29818 ft | 265 kts | 205° |
| 2026-04-22 03:04 | -43.88292 | 170.55700 | 29471 ft | 262 kts | 205° |
| 2026-04-22 03:04 | -43.89718 | 170.54146 | 29131 ft | 260 kts | 205° |
| 2026-04-22 03:04 | -43.91133 | 170.52601 | 28783 ft | 258 kts | 205° |
| 2026-04-22 03:05 | -43.92540 | 170.51066 | 28443 ft | 257 kts | 205° |
| 2026-04-22 03:05 | -43.93940 | 170.49538 | 28108 ft | 255 kts | 205° |
| 2026-04-22 03:05 | -43.95333 | 170.48014 | 27770 ft | 254 kts | 205° |
| 2026-04-22 03:05 | -43.96724 | 170.46495 | 27438 ft | 255 kts | 205° |
| 2026-04-22 03:06 | -43.98114 | 170.44973 | 27103 ft | 254 kts | 205° |
| 2026-04-22 03:06 | -43.99503 | 170.43451 | 26767 ft | 254 kts | 206° |
| 2026-04-22 03:06 | -44.00926 | 170.41906 | 26428 ft | 274 kts | 206° |
| 2026-04-22 03:06 | -44.02556 | 170.40161 | 26054 ft | 318 kts | 208° |
| 2026-04-22 03:07 | -44.04404 | 170.38135 | 25612 ft | 358 kts | 210° |
| 2026-04-22 03:07 | -44.06447 | 170.35862 | 25122 ft | 393 kts | 211° |
| 2026-04-22 03:07 | -44.08659 | 170.33412 | 24578 ft | 418 kts | 211° |
| 2026-04-22 03:07 | -44.10875 | 170.30947 | 24031 ft | 396 kts | 211° |
| 2026-04-22 03:08 | -44.12958 | 170.28633 | 23480 ft | 371 kts | 211° |
| 2026-04-22 03:08 | -44.14994 | 170.26648 | 22995 ft | 346 kts | 205° |
| 2026-04-22 03:08 | -44.16966 | 170.24877 | 22545 ft | 330 kts | 205° |
| 2026-04-22 03:08 | -44.18852 | 170.23141 | 22111 ft | 320 kts | 206° |
| 2026-04-22 03:09 | -44.20685 | 170.21440 | 21692 ft | 313 kts | 206° |
| 2026-04-22 03:09 | -44.22482 | 170.19779 | 21280 ft | 307 kts | 206° |
| 2026-04-22 03:09 | -44.24247 | 170.18153 | 20880 ft | 302 kts | 206° |
| 2026-04-22 03:09 | -44.25986 | 170.16547 | 20478 ft | 298 kts | 206° |
| 2026-04-22 03:10 | -44.27707 | 170.14955 | 20093 ft | 298 kts | 206° |
| 2026-04-22 03:10 | -44.29459 | 170.13343 | 19642 ft | 304 kts | 206° |
| 2026-04-22 03:10 | -44.31226 | 170.11700 | 19291 ft | 307 kts | 207° |
| 2026-04-22 03:10 | -44.33015 | 170.10040 | 18889 ft | 309 kts | 207° |
| 2026-04-22 03:11 | -44.34812 | 170.08376 | 18459 ft | 311 kts | 207° |
| 2026-04-22 03:11 | -44.36610 | 170.06702 | 18036 ft | 310 kts | 207° |
| 2026-04-22 03:11 | -44.38407 | 170.05033 | 17625 ft | 310 kts | 207° |
| 2026-04-22 03:11 | -44.40234 | 170.03339 | 16899 ft | 318 kts | 208° |
| 2026-04-22 03:12 | -44.42074 | 170.01621 | 16447 ft | 318 kts | 208° |
| 2026-04-22 03:12 | -44.45745 | 169.98201 | 15604 ft | 316 kts | 208° |
| 2026-04-22 03:12 | -44.47576 | 169.96497 | 15186 ft | 316 kts | 208° |
| 2026-04-22 03:13 | -44.49401 | 169.94786 | 14771 ft | 315 kts | 208° |
| 2026-04-22 03:13 | -44.51228 | 169.93084 | 14356 ft | 315 kts | 208° |
| 2026-04-22 03:13 | -44.53053 | 169.91373 | 13915 ft | 315 kts | 208° |
| 2026-04-22 03:13 | -44.54875 | 169.89674 | 13487 ft | 314 kts | 209° |
| 2026-04-22 03:14 | -44.56686 | 169.87974 | 13077 ft | 313 kts | 208° |
| 2026-04-22 03:14 | -44.58493 | 169.86281 | 12666 ft | 313 kts | 209° |
| 2026-04-22 03:14 | -44.60301 | 169.84585 | 12254 ft | 313 kts | 208° |
| 2026-04-22 03:14 | -44.62057 | 169.82776 | 11837 ft | 317 kts | 219° |
| 2026-04-22 03:15 | -44.63532 | 169.80452 | 11428 ft | 319 kts | 223° |
| 2026-04-22 03:15 | -44.65055 | 169.78189 | 11004 ft | 319 kts | 222° |
| 2026-04-22 03:15 | -44.66575 | 169.75890 | 10575 ft | 322 kts | 223° |
| 2026-04-22 03:15 | -44.68094 | 169.73576 | 10144 ft | 323 kts | 223° |
| 2026-04-22 03:16 | -44.69612 | 169.71257 | 9705 ft | 322 kts | 223° |
| 2026-04-22 03:16 | -44.71124 | 169.68942 | 9280 ft | 321 kts | 223° |
| 2026-04-22 03:16 | -44.72640 | 169.66634 | 8854 ft | 321 kts | 224° |
| 2026-04-22 03:16 | -44.74159 | 169.64329 | 8433 ft | 321 kts | 224° |
| 2026-04-22 03:17 | -44.75648 | 169.62039 | 8018 ft | 322 kts | 224° |
| 2026-04-22 03:17 | -44.77162 | 169.59718 | 7592 ft | 322 kts | 224° |
| 2026-04-22 03:17 | -44.78684 | 169.57396 | 7166 ft | 323 kts | 225° |
| 2026-04-22 03:17 | -44.80210 | 169.55053 | 6736 ft | 326 kts | 225° |
| 2026-04-22 03:18 | -44.81739 | 169.52702 | 6284 ft | 324 kts | 226° |
| 2026-04-22 03:18 | -44.83252 | 169.50372 | 5855 ft | 321 kts | 226° |
| 2026-04-22 03:18 | -44.84646 | 169.47930 | 5427 ft | 321 kts | 239° |
| 2026-04-22 03:18 | -44.85262 | 169.44927 | 4998 ft | 322 kts | 264° |
| 2026-04-22 03:19 | -44.84973 | 169.41839 | 4624 ft | 321 kts | 289° |
| 2026-04-22 03:19 | -44.83805 | 169.39179 | 4185 ft | 322 kts | 313° |
| 2026-04-22 03:19 | -44.82162 | 169.37044 | 3748 ft | 321 kts | 318° |
| 2026-04-22 03:19 | -44.80484 | 169.34981 | 3286 ft | 317 kts | 319° |
| 2026-04-22 03:20 | -44.78917 | 169.33071 | 2812 ft | 281 kts | 318° |
| 2026-04-22 03:20 | -44.77489 | 169.31429 | 2688 ft | 251 kts | 325° |
| 2026-04-22 03:20 | -44.76051 | 169.30071 | 2371 ft | 249 kts | 326° |
| 2026-04-22 03:20 | -44.74638 | 169.28721 | 2301 ft | 245 kts | 323° |
| 2026-04-22 03:21 | -44.73285 | 169.27250 | 2123 ft | 241 kts | 322° |
| 2026-04-22 03:21 | -44.72021 | 169.25834 | 2209 ft | 211 kts | 321° |
| 2026-04-22 03:21 | -44.70923 | 169.24647 | 2213 ft | 198 kts | 322° |
| 2026-04-22 03:21 | -44.70224 | 169.23304 | 2125 ft | 160 kts | 250° |
| 2026-04-22 03:22 | -44.71044 | 169.23111 | 1752 ft | 142 kts | 135° |
| 2026-04-22 03:22 | -44.71751 | 169.24055 | 1224 ft | 123 kts | 137° |
| 2026-04-22 03:22 | -44.72286 | 169.24726 | 1184 ft | 80 kts | 138° |
| 2026-04-22 03:22 | -44.72527 | 169.25053 | 1169 ft | 36 kts | 137° |
| 2026-04-22 03:23 | -44.72598 | 169.25028 | 1168 ft | 15 kts | 334° |
| 2026-04-22 03:23 | -44.72448 | 169.24848 | 1179 ft | 21 kts | 313° |
| 2026-04-22 03:23 | -44.72458 | 169.24786 | 1180 ft | 0 kts | 204° |
| 2026-04-22 03:23 | -44.72485 | 169.24801 | 1181 ft | 7 kts | 165° |
| 2026-04-22 03:24 | -44.72497 | 169.24786 | 1183 ft | 1 kts | 330° |
| 2026-04-22 03:24 | -44.72492 | 169.24790 | 1183 ft | 0 kts | 29° |
| 2026-04-22 03:24 | -44.72491 | 169.24791 | 1183 ft | 0 kts | 37° |